Oro Valley, AZ (85755)

10:18 PM MST on September 04, 2015 (GMT -0700)
KAZOROVA9 | | Change Station
CLOSE
Current Station
Personal Weather Station
Location: Oro Valley, AZ
Elevation: 3042 ft
Nearby Weather Stations

Elev 3042 ft 32.47 °N, 110.96 °W | Updated 11 seconds ago

Partly Cloudy
Partly Cloudy
73.8 °F
Feels Like 76 °F
N
0.0
Wind Variable Wind from SW
Gusts 0.0 mph

Today
High -- | Low -- °F
--% Chance of Precip.
Yesterday
High -- | Low -- °F
Precip. -- in
6:00 AM 6:44 PM
Waning Gibbous, 52% visible
Pressure 29.83 in
Visibility 10.0 miles
Clouds Mostly Cloudy 12000 ft
Heat Index 76 °F
Dew Point 63 °F
Humidity 69%
Rainfall 0.00 in
Snow Depth Not available.
UV 0 out of 12
Pollen .70 out of 12
Air Quality Not available.
Flu Activity Not available.
METAR KDMA 050458Z AUTO 13007KT 10SM BKN120 23/19 A2995 RMK AO2 SLP102 T02330188 $
Pressure 29.83 in
Visibility 10.0 miles
Clouds Mostly Cloudy 12000 ft
Heat Index 76 °F
Dew Point 63 °F
Humidity 69%
Rainfall 0.00 in
Snow Depth Not available.
UV 0 out of 12
Pollen .70 out of 12
Air Quality Not available.
Flu Activity Not available.
METAR KDMA 050458Z AUTO 13007KT 10SM BKN120 23/19 A2995 RMK AO2 SLP102 T02330188 $

10-Day Weather Forecast

×

Almanac

Astronomy

Sep. 04, 2015 Rise Set
Actual Time
Civil Twilight
Nautical Twilight
Astronomical Twilight
Moon
Length of Visible Light
Length of Day
Tomorrow will be .
, % of the Moon is Illuminated

Today's Extremes

State Highs State Lows

Community

WunderPhotos

Upload Photos

1,852,426 photos uploaded!

WunderBlogs® & News

Nearby

Air Quality

  Air Quality AQ Index Pollutant
Not available.

Snow Depth

Station Depth Elevation

Earthquake Activity

City Distance Mag. Time & Date
Minimum magnitude displayed is 2.5.

Coastal Water Temperatures

Place Temperature

Stations

Nearby Weather Stations

Station Location Temp. Windchill Dew Point Humidity Wind Precip. Elev Updated Type